Lothian, Maryland
Current Conditions -  °F | °C
As of 11:54 PM on Thursday 30 Oct 2014 (Local Time) from KNAK Reporting Station
Overcast Overcast  
Wind Chill: 52°   Ceiling: 6000
Heat Index: 52°   Visibility: 10mi
Dew Point: 41°   Wind: 3mph
Humidity: 66%   Direction: 300°WNW
Pressure: 30.03"   Gusts: NA
Location:  38.83°N, 76.61°W
Report Text: KNAK 310354Z AUTO 30003KT 10SM OVC060 11/05 A3003 RMK AO2 SLP172 T01110050
Loading
Personal Weather Stations






























Interactive Weather Map
Tropical Storm Tracking
New forecast layout! Learn more

10-Day Weather Forecast

Advertisements
Track Severe Weather on mobile